createdAt,value
2022-08-08T00:00:53.944Z,38.96
2022-08-08T00:02:51.015Z,39.32
2022-08-08T00:05:43.820Z,38.75
2022-08-08T00:08:34.106Z,39.11
2022-08-08T00:11:07.857Z,39.31
2022-08-08T00:14:16.429Z,39.34
2022-08-08T00:16:45.833Z,38.96
2022-08-08T00:19:16.615Z,39.63
2022-08-08T00:21:56.807Z,39.68
2022-08-08T00:24:37.206Z,39.92
2022-08-08T00:27:09.986Z,39.94
2022-08-08T00:29:49.232Z,39.93
2022-08-08T00:32:35.540Z,39.76
2022-08-08T00:35:20.596Z,39.40
2022-08-08T00:38:31.498Z,39.77
2022-08-08T00:41:54.762Z,39.74
2022-08-08T00:44:33.333Z,39.94
2022-08-08T00:47:00.935Z,40.27
2022-08-08T00:49:58.893Z,39.86
2022-08-08T00:52:28.839Z,40.17
2022-08-08T00:55:07.336Z,39.95
2022-08-08T00:57:41.622Z,40.13
2022-08-08T01:00:11.544Z,39.96
2022-08-08T01:03:59.667Z,39.94
2022-08-08T01:05:56.183Z,40.20
2022-08-08T01:08:36.953Z,39.74
2022-08-08T01:11:30.129Z,40.09
2022-08-08T01:14:16.491Z,40.11
2022-08-08T01:17:03.744Z,40.23
2022-08-08T01:19:52.500Z,40.02
2022-08-08T01:22:35.089Z,40.14
2022-08-08T01:25:05.235Z,40.16
2022-08-08T01:28:00.251Z,39.93
2022-08-08T01:30:31.293Z,40.10
2022-08-08T01:33:01.157Z,40.24
2022-08-08T01:35:45.062Z,40.22
2022-08-08T01:38:27.371Z,40.08
2022-08-08T01:40:56.947Z,40.42
2022-08-08T01:43:42.554Z,40.34
2022-08-08T01:46:31.211Z,40.45
2022-08-08T01:49:23.034Z,40.23
2022-08-08T01:53:35.319Z,40.47
2022-08-08T01:55:19.162Z,40.67
2022-08-08T01:58:16.960Z,40.51
2022-08-08T02:00:57.324Z,40.58
2022-08-08T02:03:55.260Z,40.73
2022-08-08T02:06:32.192Z,40.56
2022-08-08T02:09:00.419Z,40.84
2022-08-08T02:12:00.855Z,40.66
2022-08-08T02:14:55.065Z,40.13
2022-08-08T02:17:36.622Z,41.05
2022-08-08T02:21:02.289Z,40.95
2022-08-08T02:23:35.292Z,40.62
2022-08-08T02:26:12.501Z,40.57
2022-08-08T02:28:52.687Z,40.90
2022-08-08T02:31:59.587Z,40.83
2022-08-08T02:35:07.933Z,40.26
2022-08-08T02:37:52.666Z,40.70
2022-08-08T02:40:35.912Z,40.50
2022-08-08T02:44:39.376Z,40.60
2022-08-08T02:46:21.636Z,41.01
2022-08-08T02:49:05.817Z,40.83
2022-08-08T02:51:56.686Z,40.77
2022-08-08T02:54:45.388Z,40.85
2022-08-08T02:57:40.493Z,40.90
2022-08-08T03:00:31.114Z,40.76
2022-08-08T03:03:46.302Z,40.67
2022-08-08T03:06:37.378Z,40.54
2022-08-08T03:09:20.481Z,40.80
2022-08-08T03:12:05.731Z,40.79
2022-08-08T03:15:57.990Z,41.13
2022-08-08T03:17:59.932Z,41.10
2022-08-08T03:20:43.330Z,40.72
2022-08-08T03:23:18.139Z,40.94
2022-08-08T03:25:46.077Z,41.13
2022-08-08T03:28:12.814Z,40.78
2022-08-08T03:30:48.768Z,40.74
2022-08-08T03:33:55.569Z,40.98
2022-08-08T03:36:10.347Z,41.24
2022-08-08T03:38:58.349Z,41.30
2022-08-08T03:42:28.152Z,40.98
2022-08-08T03:44:25.503Z,41.32
2022-08-08T03:46:52.990Z,41.37
2022-08-08T03:50:01.126Z,41.38
2022-08-08T03:52:12.964Z,41.60
2022-08-08T03:55:01.650Z,41.61
2022-08-08T03:58:30.244Z,41.67
2022-08-08T04:00:25.842Z,42.01
2022-08-08T04:03:01.351Z,42.02
2022-08-08T04:05:29.786Z,41.68
2022-08-08T04:07:58.042Z,41.72
2022-08-08T04:10:25.537Z,41.96
2022-08-08T04:12:59.270Z,42.11
2022-08-08T04:15:30.629Z,42.49
2022-08-08T04:18:05.908Z,42.24
2022-08-08T04:20:32.762Z,42.79
2022-08-08T04:22:59.645Z,42.19
2022-08-08T04:25:33.030Z,42.77
2022-08-08T04:28:37.094Z,42.77
2022-08-08T04:30:54.965Z,42.60
2022-08-08T04:33:22.133Z,42.42
2022-08-08T04:35:51.196Z,42.91
2022-08-08T04:38:21.311Z,42.92
2022-08-08T04:40:53.559Z,43.12
2022-08-08T04:43:22.151Z,43.42
2022-08-08T04:45:49.804Z,43.29
2022-08-08T04:48:16.703Z,43.20
2022-08-08T04:50:49.027Z,42.85
2022-08-08T04:54:36.182Z,43.43
2022-08-08T04:56:05.017Z,43.10
2022-08-08T04:58:32.979Z,43.07
2022-08-08T05:01:00.040Z,42.96
2022-08-08T05:04:10.214Z,43.18
2022-08-08T05:06:25.673Z,43.65
2022-08-08T05:08:54.919Z,43.29
2022-08-08T05:11:25.786Z,43.41
2022-08-08T05:13:58.008Z,43.14
2022-08-08T05:16:54.431Z,43.48
2022-08-08T05:20:11.293Z,43.28
2022-08-08T05:22:08.955Z,43.76
2022-08-08T05:24:37.420Z,43.70
2022-08-08T05:27:04.868Z,43.76
2022-08-08T05:29:32.015Z,43.93
2022-08-08T05:32:06.157Z,44.13
2022-08-08T05:34:36.322Z,43.99
2022-08-08T05:37:15.755Z,44.31
2022-08-08T05:39:46.313Z,44.40
2022-08-08T05:42:19.299Z,44.42
2022-08-08T05:44:49.078Z,44.59
2022-08-08T05:47:21.119Z,45.02
2022-08-08T05:49:54.307Z,44.79
2022-08-08T05:52:31.681Z,44.81
2022-08-08T05:55:04.666Z,44.81
2022-08-08T05:58:05.417Z,44.92
2022-08-08T06:00:25.827Z,44.94
2022-08-08T06:03:17.102Z,44.99
2022-08-08T06:05:56.669Z,44.87
2022-08-08T06:08:36.564Z,45.38
2022-08-08T06:11:05.144Z,45.05
2022-08-08T06:13:36.267Z,45.36
2022-08-08T06:16:14.059Z,44.95
2022-08-08T06:18:41.485Z,45.35
2022-08-08T06:21:11.649Z,45.16
2022-08-08T06:24:05.200Z,44.95
2022-08-08T06:26:50.492Z,45.52
2022-08-08T06:29:59.422Z,45.98
2022-08-08T06:32:17.018Z,45.50
2022-08-08T06:34:56.516Z,45.41
2022-08-08T06:37:37.785Z,45.78
2022-08-08T06:40:07.179Z,45.49
2022-08-08T06:42:38.114Z,45.90
2022-08-08T06:45:05.809Z,46.07
2022-08-08T06:47:52.697Z,46.43
2022-08-08T06:50:31.868Z,46.18
2022-08-08T06:53:17.341Z,46.48
2022-08-08T06:56:01.985Z,46.20
2022-08-08T06:58:33.421Z,46.09
2022-08-08T07:01:01.988Z,45.51
2022-08-08T07:04:40.586Z,46.14
2022-08-08T07:06:43.849Z,45.87
2022-08-08T07:09:17.834Z,45.76
2022-08-08T07:11:51.235Z,46.26
2022-08-08T07:14:19.379Z,45.83
2022-08-08T07:17:01.825Z,46.12
2022-08-08T07:19:35.256Z,46.24
2022-08-08T07:22:11.971Z,46.48
2022-08-08T07:24:54.243Z,46.19
2022-08-08T07:27:23.004Z,46.40
2022-08-08T07:30:11.430Z,46.06
2022-08-08T07:32:42.306Z,46.28
2022-08-08T07:35:09.772Z,46.43
2022-08-08T07:37:56.079Z,46.36
2022-08-08T07:40:29.919Z,46.53
2022-08-08T07:43:01.270Z,46.30
2022-08-08T07:45:34.940Z,46.49
2022-08-08T07:48:14.762Z,46.22
2022-08-08T07:50:42.081Z,46.63
2022-08-08T07:53:52.279Z,46.53
2022-08-08T07:56:09.662Z,46.67
2022-08-08T07:58:41.130Z,46.35
2022-08-08T08:01:11.685Z,46.66
2022-08-08T08:03:58.643Z,46.42
2022-08-08T08:06:27.340Z,46.94
2022-08-08T08:09:12.472Z,47.07
2022-08-08T08:11:52.590Z,46.81
2022-08-08T08:14:30.441Z,46.66
2022-08-08T08:16:58.664Z,47.05
2022-08-08T08:19:32.074Z,46.78
2022-08-08T08:22:12.655Z,46.80
2022-08-08T08:24:46.275Z,46.29
2022-08-08T08:27:13.503Z,46.81
2022-08-08T08:29:40.335Z,46.62
2022-08-08T08:32:09.372Z,46.63
2022-08-08T08:34:42.526Z,46.58
2022-08-08T08:37:10.031Z,47.12
2022-08-08T08:40:00.233Z,46.76
2022-08-08T08:42:32.100Z,46.41
2022-08-08T08:45:21.031Z,46.56
2022-08-08T08:47:53.106Z,46.58
2022-08-08T08:50:33.390Z,46.75
2022-08-08T08:53:28.370Z,46.92
2022-08-08T08:56:01.943Z,47.06
2022-08-08T08:58:37.612Z,46.66
2022-08-08T09:01:10.423Z,46.63
2022-08-08T09:03:46.655Z,46.83
2022-08-08T09:06:28.551Z,46.83
2022-08-08T09:09:04.655Z,46.96
2022-08-08T09:11:47.768Z,46.91
2022-08-08T09:14:26.003Z,47.00
2022-08-08T09:16:53.768Z,47.01
2022-08-08T09:21:54.138Z,47.25
2022-08-08T09:22:08.167Z,46.80
2022-08-08T09:24:38.507Z,47.04
2022-08-08T09:27:20.329Z,46.97
2022-08-08T09:29:58.989Z,46.67
2022-08-08T09:33:13.227Z,46.89
2022-08-08T09:35:50.196Z,46.67
2022-08-08T09:38:52.973Z,47.04
2022-08-08T09:42:15.167Z,46.56
2022-08-08T09:44:39.745Z,46.75
2022-08-08T09:47:26.464Z,46.63
2022-08-08T09:50:03.338Z,46.97
2022-08-08T09:52:54.072Z,46.80
2022-08-08T09:55:31.315Z,46.72
2022-08-08T09:58:19.808Z,46.67
2022-08-08T10:00:57.635Z,46.26
2022-08-08T10:03:28.284Z,46.70
2022-08-08T10:05:58.573Z,46.25
2022-08-08T10:08:26.344Z,46.41
2022-08-08T10:11:00.775Z,46.39
2022-08-08T10:13:35.566Z,46.32
2022-08-08T10:16:03.746Z,46.52
2022-08-08T10:18:36.948Z,46.46
2022-08-08T10:21:22.837Z,46.50
2022-08-08T10:23:58.113Z,46.41
2022-08-08T10:26:30.574Z,45.98
2022-08-08T10:29:05.839Z,46.23
2022-08-08T10:31:52.693Z,46.10
2022-08-08T10:34:23.178Z,46.05
2022-08-08T10:36:52.632Z,46.03
2022-08-08T10:39:19.493Z,46.02
2022-08-08T10:41:58.932Z,45.94
2022-08-08T10:44:43.204Z,46.23
2022-08-08T10:47:15.046Z,46.02
2022-08-08T10:50:01.789Z,46.18
2022-08-08T10:52:31.088Z,46.18
2022-08-08T10:55:05.219Z,46.63
2022-08-08T10:57:50.039Z,46.07
2022-08-08T11:00:21.592Z,46.39
2022-08-08T11:02:50.423Z,46.38
2022-08-08T11:05:17.836Z,46.36
2022-08-08T11:08:31.650Z,46.08
2022-08-08T11:10:35.727Z,46.19
2022-08-08T11:13:28.942Z,45.98
2022-08-08T11:16:00.730Z,46.29
2022-08-08T11:18:30.553Z,46.22
2022-08-08T11:20:58.177Z,46.08
2022-08-08T11:23:31.206Z,46.38
2022-08-08T11:25:59.155Z,45.99
2022-08-08T11:28:29.479Z,46.29
2022-08-08T11:31:00.171Z,46.50
2022-08-08T11:33:53.278Z,46.55
2022-08-08T11:36:16.463Z,46.56
2022-08-08T11:38:55.200Z,46.61
2022-08-08T11:41:23.924Z,46.58
2022-08-08T11:43:53.311Z,46.24
2022-08-08T11:46:21.921Z,45.91
2022-08-08T11:48:52.057Z,46.48
2022-08-08T11:51:29.975Z,46.17
2022-08-08T11:54:27.081Z,46.44
2022-08-08T11:56:56.326Z,46.41
2022-08-08T12:00:01.827Z,46.57
2022-08-08T12:02:31.834Z,46.54
2022-08-08T12:05:06.721Z,46.36
2022-08-08T12:07:49.814Z,46.37
2022-08-08T12:10:19.407Z,46.73
2022-08-08T12:12:49.760Z,46.95
2022-08-08T12:15:29.107Z,47.17
2022-08-08T12:17:55.814Z,46.94
2022-08-08T12:20:23.193Z,46.50
2022-08-08T12:22:51.198Z,46.64
2022-08-08T12:25:24.666Z,46.64
2022-08-08T12:28:15.875Z,46.65
2022-08-08T12:30:48.010Z,46.80
2022-08-08T12:33:20.197Z,46.74
2022-08-08T12:35:52.280Z,46.48
2022-08-08T12:38:19.909Z,46.36
2022-08-08T12:41:01.002Z,46.32
2022-08-08T12:43:46.225Z,46.50
2022-08-08T12:46:27.018Z,46.84
2022-08-08T12:51:58.407Z,46.76
2022-08-08T12:54:37.386Z,46.73
2022-08-08T12:57:17.070Z,46.46
2022-08-08T13:00:03.668Z,46.19
2022-08-08T13:02:42.073Z,47.02
2022-08-08T13:05:26.428Z,46.77
2022-08-08T13:08:15.770Z,46.81
2022-08-08T13:10:56.675Z,46.65
2022-08-08T13:13:35.005Z,46.48
2022-08-08T13:16:17.532Z,46.31
2022-08-08T13:18:56.898Z,46.35
2022-08-08T13:21:48.890Z,46.54
2022-08-08T13:24:18.999Z,46.88
2022-08-08T13:27:05.365Z,46.67
2022-08-08T13:29:47.741Z,46.72
2022-08-08T13:32:14.448Z,47.14
2022-08-08T13:34:42.086Z,46.56
2022-08-08T13:37:11.025Z,46.50
2022-08-08T13:39:50.812Z,46.73
2022-08-08T13:42:18.538Z,47.07
2022-08-08T13:44:54.145Z,46.91
2022-08-08T13:47:23.575Z,46.44
2022-08-08T13:50:34.920Z,46.69
2022-08-08T13:52:49.147Z,47.14
2022-08-08T13:55:29.012Z,46.60
2022-08-08T13:58:08.129Z,46.59
2022-08-08T14:00:45.155Z,46.70
2022-08-08T14:03:52.462Z,46.67
2022-08-08T14:06:32.558Z,46.57
2022-08-08T14:08:58.605Z,46.83
2022-08-08T14:11:27.938Z,46.42
2022-08-08T14:14:00.164Z,46.71
2022-08-08T14:16:27.792Z,46.58
2022-08-08T14:18:55.796Z,46.60
2022-08-08T14:21:31.722Z,46.59
2022-08-08T14:24:08.867Z,46.27
2022-08-08T14:26:42.428Z,46.68
2022-08-08T14:29:29.919Z,46.61
2022-08-08T14:32:09.588Z,46.41
2022-08-08T14:34:42.424Z,46.57
2022-08-08T14:37:09.807Z,46.84
2022-08-08T14:39:50.253Z,46.60
2022-08-08T14:42:54.761Z,46.48
2022-08-08T14:45:33.401Z,46.57
2022-08-08T14:48:16.604Z,46.70
2022-08-08T14:50:45.303Z,46.57
2022-08-08T14:53:15.999Z,47.22
2022-08-08T14:55:43.586Z,46.74
2022-08-08T14:58:16.336Z,46.54
2022-08-08T15:00:47.903Z,46.62
2022-08-08T15:03:17.000Z,46.75
2022-08-08T15:05:54.383Z,46.66
2022-08-08T15:08:34.370Z,46.86
2022-08-08T15:11:06.277Z,46.68
2022-08-08T15:13:39.722Z,46.72
2022-08-08T15:16:11.724Z,47.03
2022-08-08T15:18:38.665Z,46.93
2022-08-08T15:21:08.472Z,46.73
2022-08-08T15:23:39.439Z,46.66
2022-08-08T15:26:10.881Z,46.73
2022-08-08T15:28:39.788Z,46.81
2022-08-08T15:31:06.540Z,46.57
2022-08-08T15:33:38.230Z,47.07
2022-08-08T15:36:05.757Z,46.70
2022-08-08T15:38:32.758Z,46.76
2022-08-08T15:40:59.980Z,46.72
2022-08-08T15:43:35.741Z,46.66
2022-08-08T15:46:04.670Z,46.75
2022-08-08T15:48:31.379Z,46.59
2022-08-08T15:51:01.873Z,46.18
2022-08-08T15:53:40.263Z,46.57
2022-08-08T15:56:16.067Z,46.23
2022-08-08T15:58:48.562Z,45.89
2022-08-08T16:01:15.705Z,46.53
2022-08-08T16:03:42.540Z,46.50
2022-08-08T16:06:14.275Z,46.58
2022-08-08T16:09:02.343Z,46.61
2022-08-08T16:13:10.233Z,46.61
2022-08-08T16:14:16.037Z,46.46
2022-08-08T16:16:59.109Z,46.22
2022-08-08T16:19:26.424Z,46.87
2022-08-08T16:21:54.057Z,46.44
2022-08-08T16:24:23.105Z,46.41
2022-08-08T16:26:50.844Z,46.06
2022-08-08T16:29:23.782Z,46.15
2022-08-08T16:32:04.521Z,45.67
2022-08-08T16:34:38.050Z,45.90
2022-08-08T16:37:05.580Z,46.18
2022-08-08T16:40:02.560Z,46.25
2022-08-08T16:42:19.206Z,45.78
2022-08-08T16:44:47.360Z,46.10
2022-08-08T16:47:39.951Z,45.78
2022-08-08T16:50:13.795Z,46.05
2022-08-08T16:55:00.748Z,45.92
2022-08-08T16:55:53.772Z,45.83
2022-08-08T16:58:18.750Z,46.00
2022-08-08T17:00:48.921Z,46.12
2022-08-08T17:03:16.334Z,45.81
2022-08-08T17:05:53.841Z,45.77
2022-08-08T17:08:20.725Z,45.72
2022-08-08T17:10:57.498Z,46.26
2022-08-08T17:13:27.445Z,46.47
2022-08-08T17:16:15.413Z,46.07
2022-08-08T17:18:43.097Z,45.94
2022-08-08T17:21:12.476Z,46.39
2022-08-08T17:24:01.610Z,46.55
2022-08-08T17:26:29.267Z,46.81
2022-08-08T17:28:56.372Z,46.51
2022-08-08T17:31:43.466Z,46.51
2022-08-08T17:34:48.199Z,46.64
2022-08-08T17:37:00.748Z,46.60
2022-08-08T17:40:03.747Z,46.56
2022-08-08T17:42:17.958Z,46.66
2022-08-08T17:44:45.210Z,46.97
2022-08-08T17:47:23.149Z,46.88
2022-08-08T17:49:51.787Z,47.13
2022-08-08T17:52:19.751Z,46.95
2022-08-08T17:54:49.765Z,47.16
2022-08-08T17:57:22.895Z,46.98
2022-08-08T17:59:49.630Z,47.01
2022-08-08T18:02:21.399Z,47.38
2022-08-08T18:04:55.097Z,47.67
2022-08-08T18:08:02.608Z,47.53
2022-08-08T18:10:08.688Z,47.25
2022-08-08T18:12:35.475Z,47.31
2022-08-08T18:15:03.852Z,47.53
2022-08-08T18:18:10.000Z,47.58
2022-08-08T18:20:43.676Z,47.58
2022-08-08T18:23:15.074Z,47.93
2022-08-08T18:25:42.412Z,47.97
2022-08-08T18:28:13.295Z,47.72
2022-08-08T18:30:41.092Z,47.74
2022-08-08T18:33:36.895Z,48.25
2022-08-08T18:36:04.624Z,48.09
2022-08-08T18:38:32.426Z,47.98
2022-08-08T18:41:01.219Z,48.12
2022-08-08T18:43:42.616Z,48.02
2022-08-08T18:46:54.553Z,48.03
2022-08-08T18:48:58.006Z,48.04
2022-08-08T18:51:48.612Z,47.85
2022-08-08T18:54:21.950Z,47.90
2022-08-08T18:56:50.150Z,48.07
2022-08-08T18:59:17.346Z,48.00
2022-08-08T19:02:25.459Z,48.06
2022-08-08T19:04:35.893Z,48.04
2022-08-08T19:07:02.645Z,48.28
2022-08-08T19:09:48.508Z,47.96
2022-08-08T19:12:17.280Z,48.38
2022-08-08T19:14:48.096Z,48.29
2022-08-08T19:17:28.655Z,48.15
2022-08-08T19:20:02.597Z,48.03
2022-08-08T19:22:30.214Z,48.44
2022-08-08T19:25:29.969Z,48.31
2022-08-08T19:27:56.393Z,48.46
2022-08-08T19:30:26.434Z,48.41
2022-08-08T19:32:54.067Z,48.53
2022-08-08T19:35:45.616Z,48.22
2022-08-08T19:38:21.934Z,48.75
2022-08-08T19:40:49.968Z,48.43
2022-08-08T19:43:28.166Z,48.74
2022-08-08T19:45:58.449Z,48.83
2022-08-08T19:48:29.135Z,48.81
2022-08-08T19:50:59.276Z,48.78
2022-08-08T19:53:46.829Z,48.85
2022-08-08T19:56:13.814Z,48.94
2022-08-08T19:58:43.233Z,48.87
2022-08-08T20:01:22.775Z,48.74
2022-08-08T20:04:00.931Z,49.00
2022-08-08T20:06:29.916Z,48.95
2022-08-08T20:08:57.304Z,48.98
2022-08-08T20:11:24.448Z,49.12
2022-08-08T20:14:32.042Z,49.02
2022-08-08T20:16:40.396Z,48.91
2022-08-08T20:19:07.614Z,49.09
2022-08-08T20:21:38.190Z,49.01
2022-08-08T20:24:05.936Z,49.17
2022-08-08T20:26:34.496Z,49.04
2022-08-08T20:29:02.453Z,49.05
2022-08-08T20:32:07.544Z,49.36
2022-08-08T20:34:31.292Z,48.91
2022-08-08T20:37:03.219Z,48.85
2022-08-08T20:39:39.467Z,49.13
2022-08-08T20:42:28.770Z,48.65
2022-08-08T20:44:56.700Z,48.60
2022-08-08T20:47:36.251Z,49.23
2022-08-08T20:50:10.011Z,49.20
2022-08-08T20:52:37.534Z,49.24
2022-08-08T20:55:16.427Z,49.06
2022-08-08T20:57:51.697Z,49.30
2022-08-08T21:00:19.756Z,49.19
2022-08-08T21:02:52.434Z,49.36
2022-08-08T21:05:20.042Z,49.54
2022-08-08T21:08:33.652Z,49.70
2022-08-08T21:10:37.061Z,49.47
2022-08-08T21:13:15.833Z,49.54
2022-08-08T21:16:05.545Z,49.41
2022-08-08T21:18:32.683Z,49.58
2022-08-08T21:20:59.672Z,50.04
2022-08-08T21:24:01.944Z,50.00
2022-08-08T21:26:13.607Z,49.93
2022-08-08T21:29:00.451Z,49.77
2022-08-08T21:31:58.928Z,50.23
2022-08-08T21:34:18.829Z,50.39
2022-08-08T21:36:49.662Z,50.10
2022-08-08T21:39:17.201Z,50.31
2022-08-08T21:41:53.662Z,50.07
2022-08-08T21:44:25.774Z,50.16
2022-08-08T21:48:06.765Z,50.43
2022-08-08T21:49:40.554Z,50.21
2022-08-08T21:54:31.448Z,50.31
2022-08-08T21:55:02.911Z,50.22
2022-08-08T21:57:43.062Z,50.32
2022-08-08T22:00:26.044Z,50.07
2022-08-08T22:02:53.419Z,50.41
2022-08-08T22:05:20.592Z,50.20
2022-08-08T22:07:49.222Z,50.41
2022-08-08T22:10:32.797Z,50.36
2022-08-08T22:13:18.755Z,50.47
2022-08-08T22:15:58.741Z,50.27
2022-08-08T22:18:27.911Z,50.27
2022-08-08T22:20:57.910Z,50.40
2022-08-08T22:23:29.856Z,50.53
2022-08-08T22:26:27.559Z,50.52
2022-08-08T22:29:04.987Z,50.51
2022-08-08T22:31:35.434Z,50.74
2022-08-08T22:34:13.163Z,50.36
2022-08-08T22:36:42.737Z,50.41
2022-08-08T22:39:18.906Z,50.44
2022-08-08T22:41:49.486Z,50.43
2022-08-08T22:44:17.170Z,50.13
2022-08-08T22:46:45.695Z,50.63
2022-08-08T22:49:17.912Z,50.59
2022-08-08T22:51:47.196Z,50.83
2022-08-08T22:54:30.240Z,50.53
2022-08-08T22:57:01.704Z,50.56
2022-08-08T22:59:35.857Z,50.76
2022-08-08T23:02:14.978Z,50.71
2022-08-08T23:05:04.670Z,50.68
2022-08-08T23:07:51.539Z,50.97
2022-08-08T23:10:21.530Z,50.77
2022-08-08T23:12:52.359Z,50.69
2022-08-08T23:16:38.720Z,50.71
2022-08-08T23:18:11.992Z,50.97
2022-08-08T23:20:39.984Z,50.77
2022-08-08T23:23:17.980Z,50.77
2022-08-08T23:25:48.233Z,51.05
2022-08-08T23:28:15.545Z,51.03
2022-08-08T23:30:45.086Z,50.97
2022-08-08T23:34:15.951Z,51.14
2022-08-08T23:36:08.857Z,51.00
2022-08-08T23:38:36.653Z,51.25
2022-08-08T23:41:25.395Z,50.85
2022-08-08T23:43:56.882Z,50.58
2022-08-08T23:49:05.194Z,50.96
2022-08-08T23:49:15.463Z,50.93
2022-08-08T23:52:07.154Z,51.00
2022-08-08T23:54:43.395Z,50.92
2022-08-08T23:57:27.006Z,50.67
